Check out our new PWSWeather beta!
PWSweather.com
Personal Weather Stations
Station Observations

ChardChardGB

Lat: 50.877408, Lon: -2.94964741

Elevation: 341

Station Type: WS3083

http://www.merriott-astro.co.uk/weather/index.htm

High Low Average
Temperature 40.5°F4.7°C 34.7°F1.5°C 38.2°F3.4°C
Dew Point 36.3°F2.4°C 29.8°F-1.2°C 33.3°F0.7°C
Winds 9.2 mph 14.8 kmh Calm Calm 4.0 mph SSE6.4 kmh SSE
Wind Gusts 13.6 mph21.9 kmh -- 5.0 mph8.0 kmh
Humidity 85% 80% 82%
Pressure 29.17 in987.8 mb 29.06 in984.1 mb -
Precipitation 0.21 in5.3 mm - -
Hour Temp Dew Point Humidity Winds Wind Gusts Pressure Precip Precip Rate Daily Precip Total
12:00 AM 35.4°F1.9°C 29.9°F-1.2°C 80% Calm Calm -- 29.16 in987.5 mb 0.00 in0.0 mm 0.00 in0.0 mm 0.00 in0.0 mm
12:10 AM 35.4°F1.9°C 29.9°F-1.2°C 80% Calm Calm -- 29.17 in987.8 mb 0.00 in0.0 mm 0.00 in0.0 mm 0.00 in0.0 mm
12:20 AM 35.4°F1.9°C 29.9°F-1.2°C 80% Calm Calm -- 29.17 in987.8 mb 0.00 in0.0 mm 0.00 in0.0 mm 0.00 in0.0 mm
12:30 AM 35.4°F1.9°C 29.9°F-1.2°C 80% Calm Calm -- 29.16 in987.5 mb 0.00 in0.0 mm 0.00 in0.0 mm 0.00 in0.0 mm
12:40 AM 35.4°F1.9°C 29.9°F-1.2°C 80% Calm Calm -- 29.16 in987.5 mb 0.00 in0.0 mm 0.00 in0.0 mm 0.00 in0.0 mm
12:50 AM 35.4°F1.9°C 29.9°F-1.2°C 80% Calm Calm -- 29.16 in987.5 mb 0.00 in0.0 mm 0.00 in0.0 mm 0.00 in0.0 mm
01:00 AM 35.4°F1.9°C 29.9°F-1.2°C 80% Calm Calm -- 29.16 in987.5 mb 0.00 in0.0 mm 0.00 in0.0 mm 0.00 in0.0 mm
01:10 AM 35.4°F1.9°C 29.9°F-1.2°C 80% Calm Calm -- 29.16 in987.5 mb 0.00 in0.0 mm 0.00 in0.0 mm 0.00 in0.0 mm
01:20 AM 35.4°F1.9°C 29.9°F-1.2°C 80% Calm Calm -- 29.16 in987.5 mb 0.00 in0.0 mm 0.00 in0.0 mm 0.00 in0.0 mm
01:30 AM 35.4°F1.9°C 29.9°F-1.2°C 80% Calm Calm -- 29.16 in987.5 mb 0.00 in0.0 mm 0.00 in0.0 mm 0.00 in0.0 mm
01:40 AM 35.4°F1.9°C 29.9°F-1.2°C 80% Calm Calm -- 29.15 in987.1 mb 0.00 in0.0 mm 0.00 in0.0 mm 0.00 in0.0 mm
01:50 AM 35.4°F1.9°C 29.9°F-1.2°C 80% Calm Calm -- 29.16 in987.5 mb 0.00 in0.0 mm 0.00 in0.0 mm 0.00 in0.0 mm
02:00 AM 35.4°F1.9°C 29.9°F-1.2°C 80% Calm Calm -- 29.15 in987.1 mb 0.00 in0.0 mm 0.00 in0.0 mm 0.00 in0.0 mm
02:10 AM 35.4°F1.9°C 29.9°F-1.2°C 80% Calm Calm -- 29.15 in987.1 mb 0.00 in0.0 mm 0.00 in0.0 mm 0.00 in0.0 mm
02:20 AM 35.4°F1.9°C 29.9°F-1.2°C 80% Calm Calm -- 29.15 in987.1 mb 0.00 in0.0 mm 0.00 in0.0 mm 0.00 in0.0 mm
02:30 AM 35.4°F1.9°C 29.9°F-1.2°C 80% Calm Calm -- 29.15 in987.1 mb 0.00 in0.0 mm 0.00 in0.0 mm 0.00 in0.0 mm
02:40 AM 35.4°F1.9°C 29.9°F-1.2°C 80% Calm Calm -- 29.15 in987.1 mb 0.00 in0.0 mm 0.00 in0.0 mm 0.00 in0.0 mm
02:50 AM 35.4°F1.9°C 29.9°F-1.2°C 80% Calm Calm -- 29.14 in986.8 mb 0.00 in0.0 mm 0.00 in0.0 mm 0.00 in0.0 mm
03:00 AM 35.4°F1.9°C 29.9°F-1.2°C 80% Calm Calm -- 29.15 in987.1 mb 0.00 in0.0 mm 0.00 in0.0 mm 0.00 in0.0 mm
03:10 AM 35.4°F1.9°C 29.9°F-1.2°C 80% Calm Calm -- 29.14 in986.8 mb 0.00 in0.0 mm 0.00 in0.0 mm 0.00 in0.0 mm
03:20 AM 35.4°F1.9°C 29.9°F-1.2°C 80% Calm Calm -- 29.14 in986.8 mb 0.00 in0.0 mm 0.00 in0.0 mm 0.00 in0.0 mm
03:30 AM 35.4°F1.9°C 29.9°F-1.2°C 80% Calm Calm -- 29.14 in986.8 mb 0.00 in0.0 mm 0.00 in0.0 mm 0.00 in0.0 mm
03:40 AM 35.4°F1.9°C 29.9°F-1.2°C 80% Calm Calm -- 29.14 in986.8 mb 0.00 in0.0 mm 0.00 in0.0 mm 0.00 in0.0 mm
03:50 AM 35.4°F1.9°C 29.9°F-1.2°C 80% Calm Calm -- 29.14 in986.8 mb 0.00 in0.0 mm 0.00 in0.0 mm 0.00 in0.0 mm
04:00 AM 35.4°F1.9°C 29.9°F-1.2°C 80% Calm Calm -- 29.13 in986.5 mb 0.00 in0.0 mm 0.00 in0.0 mm 0.00 in0.0 mm
04:10 AM 35.4°F1.9°C 29.9°F-1.2°C 80% Calm Calm -- 29.14 in986.8 mb 0.00 in0.0 mm 0.00 in0.0 mm 0.00 in0.0 mm
04:20 AM 35.4°F1.9°C 29.9°F-1.2°C 80% Calm Calm -- 29.13 in986.5 mb 0.00 in0.0 mm 0.00 in0.0 mm 0.00 in0.0 mm
04:30 AM 35.4°F1.9°C 29.9°F-1.2°C 80% Calm Calm -- 29.13 in986.5 mb 0.00 in0.0 mm 0.00 in0.0 mm 0.00 in0.0 mm
04:40 AM 35.4°F1.9°C 29.9°F-1.2°C 80% Calm Calm -- 29.13 in986.5 mb 0.00 in0.0 mm 0.00 in0.0 mm 0.00 in0.0 mm
04:50 AM 34.7°F1.5°C 29.8°F-1.2°C 82% Calm Calm -- 29.14 in986.8 mb 0.00 in0.0 mm 0.00 in0.0 mm 0.00 in0.0 mm
05:00 AM 35.2°F1.8°C 30.6°F-0.8°C 83% Calm Calm -- 29.14 in986.8 mb 0.00 in0.0 mm 0.00 in0.0 mm 0.00 in0.0 mm
05:10 AM 35.1°F1.7°C 30.4°F-0.9°C 83% Calm Calm -- 29.13 in986.5 mb 0.00 in0.0 mm 0.00 in0.0 mm 0.00 in0.0 mm
05:20 AM 34.9°F1.6°C 30.3°F-0.9°C 83% Calm Calm -- 29.13 in986.5 mb 0.00 in0.0 mm 0.00 in0.0 mm 0.00 in0.0 mm
05:30 AM 34.9°F1.6°C 30.3°F-0.9°C 83% Calm Calm -- 29.12 in986.1 mb 0.00 in0.0 mm 0.00 in0.0 mm 0.00 in0.0 mm
05:40 AM 34.9°F1.6°C 30.0°F-1.1°C 82% Calm Calm -- 29.13 in986.5 mb 0.00 in0.0 mm 0.00 in0.0 mm 0.00 in0.0 mm
05:50 AM 35.1°F1.7°C 30.4°F-0.9°C 83% Calm Calm -- 29.13 in986.5 mb 0.00 in0.0 mm 0.00 in0.0 mm 0.00 in0.0 mm
06:00 AM 35.1°F1.7°C 30.4°F-0.9°C 83% Calm Calm -- 29.13 in986.5 mb 0.00 in0.0 mm 0.00 in0.0 mm 0.00 in0.0 mm
06:10 AM 35.2°F1.8°C 30.6°F-0.8°C 83% Calm Calm -- 29.14 in986.8 mb 0.00 in0.0 mm 0.00 in0.0 mm 0.00 in0.0 mm
06:20 AM 35.4°F1.9°C 30.8°F-0.7°C 83% Calm Calm -- 29.13 in986.5 mb 0.00 in0.0 mm 0.00 in0.0 mm 0.00 in0.0 mm
06:30 AM 35.4°F1.9°C 30.8°F-0.7°C 83% Calm Calm -- 29.14 in986.8 mb 0.00 in0.0 mm 0.00 in0.0 mm 0.00 in0.0 mm
06:40 AM 35.6°F2.0°C 31.0°F-0.6°C 83% Calm Calm -- 29.14 in986.8 mb 0.00 in0.0 mm 0.00 in0.0 mm 0.00 in0.0 mm
06:50 AM 35.8°F2.1°C 31.1°F-0.5°C 83% Calm Calm -- 29.13 in986.5 mb 0.00 in0.0 mm 0.00 in0.0 mm 0.00 in0.0 mm
07:00 AM 36.0°F2.2°C 31.3°F-0.4°C 83% Calm Calm -- 29.13 in986.5 mb 0.00 in0.0 mm 0.00 in0.0 mm 0.00 in0.0 mm
07:10 AM 36.3°F2.4°C 31.7°F-0.2°C 83% Calm Calm -- 29.13 in986.5 mb 0.00 in0.0 mm 0.00 in0.0 mm 0.00 in0.0 mm
07:20 AM 36.7°F2.6°C 32.0°F0.0°C 83% Calm Calm -- 29.13 in986.5 mb 0.00 in0.0 mm 0.00 in0.0 mm 0.00 in0.0 mm
07:30 AM 36.9°F2.7°C 32.2°F0.1°C 83% Calm Calm -- 29.12 in986.1 mb 0.00 in0.0 mm 0.00 in0.0 mm 0.00 in0.0 mm
07:40 AM 36.9°F2.7°C 32.2°F0.1°C 83% 1.9 mph NE3.1 kmh NE 3.8 mph6.1 kmh 29.13 in986.5 mb 0.00 in0.0 mm 0.00 in0.0 mm 0.00 in0.0 mm
07:50 AM 37.0°F2.8°C 32.7°F0.4°C 84% 3.7 mph NE6.0 kmh NE 5.4 mph8.7 kmh 29.13 in986.5 mb 0.00 in0.0 mm 0.00 in0.0 mm 0.00 in0.0 mm
08:00 AM 37.2°F2.9°C 32.8°F0.4°C 84% 4.0 mph NNE6.4 kmh NNE 5.4 mph8.7 kmh 29.13 in986.5 mb 0.00 in0.0 mm 0.00 in0.0 mm 0.00 in0.0 mm
08:10 AM 37.8°F3.2°C 33.4°F0.8°C 84% 3.2 mph NE5.1 kmh NE 5.4 mph8.7 kmh 29.12 in986.1 mb 0.00 in0.0 mm 0.00 in0.0 mm 0.00 in0.0 mm
08:20 AM 37.8°F3.2°C 33.4°F0.8°C 84% 3.7 mph NE6.0 kmh NE 4.5 mph7.2 kmh 29.13 in986.5 mb 0.00 in0.0 mm 0.00 in0.0 mm 0.00 in0.0 mm
08:30 AM 37.8°F3.2°C 33.4°F0.8°C 84% 1.1 mph NE1.8 kmh NE 4.5 mph7.2 kmh 29.12 in986.1 mb 0.00 in0.0 mm 0.00 in0.0 mm 0.00 in0.0 mm
08:40 AM 37.9°F3.3°C 33.5°F0.8°C 84% 3.7 mph ENE6.0 kmh ENE 4.5 mph7.2 kmh 29.12 in986.1 mb 0.00 in0.0 mm 0.00 in0.0 mm 0.00 in0.0 mm
08:50 AM 37.9°F3.3°C 33.5°F0.8°C 84% 2.5 mph NE4.0 kmh NE 4.5 mph7.2 kmh 29.12 in986.1 mb 0.00 in0.0 mm 0.00 in0.0 mm 0.00 in0.0 mm
09:00 AM 38.3°F3.5°C 33.9°F1.1°C 84% Calm Calm -- 29.12 in986.1 mb 0.01 in0.3 mm 0.01 in0.3 mm 0.01 in0.3 mm
09:10 AM 38.7°F3.7°C 34.3°F1.3°C 84% Calm Calm -- 29.12 in986.1 mb 0.01 in0.3 mm 0.00 in0.0 mm 0.01 in0.3 mm
09:20 AM 38.7°F3.7°C 34.3°F1.3°C 84% 4.1 mph NE6.6 kmh NE 6.9 mph11.1 kmh 29.11 in985.8 mb 0.01 in0.3 mm 0.00 in0.0 mm 0.01 in0.3 mm
09:30 AM 39.0°F3.9°C 34.6°F1.4°C 84% 3.5 mph NE5.6 kmh NE 5.4 mph8.7 kmh 29.11 in985.8 mb 0.01 in0.3 mm 0.00 in0.0 mm 0.01 in0.3 mm
09:40 AM 39.2°F4.0°C 35.1°F1.7°C 85% 3.6 mph NE5.8 kmh NE 5.4 mph8.7 kmh 29.11 in985.8 mb 0.02 in0.5 mm 0.06 in1.5 mm 0.02 in0.5 mm
09:50 AM 39.6°F4.2°C 35.4°F1.9°C 85% 3.3 mph E5.3 kmh E 4.5 mph7.2 kmh 29.11 in985.8 mb 0.02 in0.5 mm 0.00 in0.0 mm 0.02 in0.5 mm
10:00 AM 39.7°F4.3°C 35.6°F2.0°C 85% 4.1 mph NE6.6 kmh NE 6.0 mph9.7 kmh 29.11 in985.8 mb 0.01 in0.3 mm 0.00 in0.0 mm 0.02 in0.5 mm
10:10 AM 40.1°F4.5°C 36.0°F2.2°C 85% 3.7 mph NE6.0 kmh NE 6.0 mph9.7 kmh 29.11 in985.8 mb 0.01 in0.3 mm 0.00 in0.0 mm 0.02 in0.5 mm
10:20 AM 40.5°F4.7°C 36.3°F2.4°C 85% 4.6 mph NNW7.4 kmh NNW 6.9 mph11.1 kmh 29.11 in985.8 mb 0.01 in0.3 mm 0.00 in0.0 mm 0.02 in0.5 mm
10:30 AM 40.3°F4.6°C 36.1°F2.3°C 85% 5.1 mph NE8.2 kmh NE 6.9 mph11.1 kmh 29.10 in985.4 mb 0.02 in0.5 mm 0.06 in1.5 mm 0.04 in1.0 mm
10:40 AM 39.9°F4.4°C 35.8°F2.1°C 85% 6.1 mph NNE9.8 kmh NNE 7.6 mph12.2 kmh 29.11 in985.8 mb 0.01 in0.3 mm 0.00 in0.0 mm 0.04 in1.0 mm
10:50 AM 39.9°F4.4°C 35.8°F2.1°C 85% 5.8 mph N9.3 kmh N 9.8 mph15.8 kmh 29.10 in985.4 mb 0.02 in0.5 mm 0.06 in1.5 mm 0.05 in1.3 mm
11:00 AM 40.3°F4.6°C 36.1°F2.3°C 85% 6.2 mph N10.0 kmh N 9.8 mph15.8 kmh 29.10 in985.4 mb 0.02 in0.5 mm 0.00 in0.0 mm 0.05 in1.3 mm
11:10 AM 40.3°F4.6°C 36.1°F2.3°C 85% 7.0 mph N11.3 kmh N 9.8 mph15.8 kmh 29.10 in985.4 mb 0.02 in0.5 mm 0.00 in0.0 mm 0.05 in1.3 mm
11:20 AM 39.9°F4.4°C 35.8°F2.1°C 85% 7.3 mph N11.7 kmh N 11.4 mph18.3 kmh 29.10 in985.4 mb 0.04 in1.0 mm 0.12 in3.0 mm 0.06 in1.5 mm
11:30 AM 39.9°F4.4°C 35.5°F1.9°C 84% 7.3 mph NNE11.7 kmh NNE 11.4 mph18.3 kmh 29.09 in985.1 mb 0.04 in1.0 mm 0.00 in0.0 mm 0.07 in1.8 mm
11:40 AM 39.9°F4.4°C 35.5°F1.9°C 84% 7.4 mph NNE11.9 kmh NNE 9.2 mph14.8 kmh 29.09 in985.1 mb 0.04 in1.0 mm 0.00 in0.0 mm 0.07 in1.8 mm
11:50 AM 39.6°F4.2°C 35.1°F1.7°C 84% 7.5 mph N12.1 kmh N 9.8 mph15.8 kmh 29.09 in985.1 mb 0.04 in1.0 mm 0.00 in0.0 mm 0.08 in2.0 mm
12:00 PM 39.2°F4.0°C 34.5°F1.4°C 83% 8.5 mph N13.7 kmh N 13.6 mph21.9 kmh 29.09 in985.1 mb 0.05 in1.3 mm 0.01 in0.3 mm 0.09 in2.3 mm
12:10 PM 39.4°F4.1°C 34.7°F1.5°C 83% 7.1 mph N11.4 kmh N 9.8 mph15.8 kmh 29.09 in985.1 mb 0.06 in1.5 mm 0.06 in1.5 mm 0.11 in2.8 mm
12:20 PM 39.2°F4.0°C 34.2°F1.2°C 82% 9.2 mph NNW14.8 kmh NNW 12.1 mph19.5 kmh 29.08 in984.8 mb 0.05 in1.3 mm 0.00 in0.0 mm 0.11 in2.8 mm
12:30 PM 39.4°F4.1°C 34.4°F1.3°C 82% 7.1 mph N11.4 kmh N 12.1 mph19.5 kmh 29.08 in984.8 mb 0.05 in1.3 mm 0.00 in0.0 mm 0.12 in3.0 mm
12:40 PM 39.4°F4.1°C 34.4°F1.3°C 82% 8.4 mph N13.5 kmh N 11.4 mph18.3 kmh 29.08 in984.8 mb 0.05 in1.3 mm 0.00 in0.0 mm 0.12 in3.0 mm
12:50 PM 39.4°F4.1°C 34.4°F1.3°C 82% 8.3 mph NW13.4 kmh NW 13.0 mph20.9 kmh 29.08 in984.8 mb 0.04 in1.0 mm 0.00 in0.0 mm 0.12 in3.0 mm
01:00 PM 39.4°F4.1°C 34.4°F1.3°C 82% 7.1 mph NW11.4 kmh NW 12.1 mph19.5 kmh 29.08 in984.8 mb 0.02 in0.5 mm 0.00 in0.0 mm 0.12 in3.0 mm
01:10 PM 39.4°F4.1°C 34.4°F1.3°C 82% 5.9 mph N9.5 kmh N 9.8 mph15.8 kmh 29.08 in984.8 mb 0.02 in0.5 mm 0.00 in0.0 mm 0.13 in3.3 mm
01:20 PM 39.6°F4.2°C 34.5°F1.4°C 82% 5.5 mph NNW8.9 kmh NNW 8.3 mph13.4 kmh 29.07 in984.4 mb 0.04 in1.0 mm 0.12 in3.0 mm 0.14 in3.6 mm
01:30 PM 39.7°F4.3°C 34.7°F1.5°C 82% 5.0 mph NW8.0 kmh NW 6.9 mph11.1 kmh 29.07 in984.4 mb 0.02 in0.5 mm 0.00 in0.0 mm 0.14 in3.6 mm
01:40 PM 39.7°F4.3°C 34.7°F1.5°C 82% 6.9 mph NW11.1 kmh NW 10.7 mph17.2 kmh 29.07 in984.4 mb 0.04 in1.0 mm 0.12 in3.0 mm 0.15 in3.8 mm
01:50 PM 40.1°F4.5°C 35.1°F1.7°C 82% 5.3 mph NW8.5 kmh NW 9.2 mph14.8 kmh 29.06 in984.1 mb 0.05 in1.3 mm 0.06 in1.5 mm 0.17 in4.3 mm
02:00 PM 40.3°F4.6°C 35.2°F1.8°C 82% 6.3 mph NNW10.1 kmh NNW 9.8 mph15.8 kmh 29.06 in984.1 mb 0.05 in1.3 mm 0.00 in0.0 mm 0.17 in4.3 mm
02:10 PM 40.5°F4.7°C 35.7°F2.1°C 83% 6.6 mph NW10.6 kmh NW 10.7 mph17.2 kmh 29.06 in984.1 mb 0.02 in0.5 mm 0.00 in0.0 mm 0.17 in4.3 mm
02:20 PM 40.5°F4.7°C 35.4°F1.9°C 82% 8.2 mph W13.2 kmh W 13.6 mph21.9 kmh 29.06 in984.1 mb 0.02 in0.5 mm 0.00 in0.0 mm 0.17 in4.3 mm
02:30 PM 40.1°F4.5°C 35.1°F1.7°C 82% 8.1 mph NNW13.0 kmh NNW 11.4 mph18.3 kmh 29.07 in984.4 mb 0.02 in0.5 mm 0.00 in0.0 mm 0.18 in4.6 mm
02:40 PM 40.3°F4.6°C 35.2°F1.8°C 82% 5.5 mph NW8.9 kmh NW 9.2 mph14.8 kmh 29.07 in984.4 mb 0.02 in0.5 mm 0.00 in0.0 mm 0.18 in4.6 mm
02:50 PM 40.3°F4.6°C 35.2°F1.8°C 82% 6.0 mph NW9.7 kmh NW 8.3 mph13.4 kmh 29.06 in984.1 mb 0.01 in0.3 mm 0.00 in0.0 mm 0.18 in4.6 mm
03:00 PM 40.5°F4.7°C 35.4°F1.9°C 82% 5.9 mph NW9.5 kmh NW 7.6 mph12.2 kmh 29.07 in984.4 mb 0.02 in0.5 mm 0.01 in0.3 mm 0.19 in4.8 mm
03:10 PM 40.5°F4.7°C 35.4°F1.9°C 82% 6.2 mph NW10.0 kmh NW 9.2 mph14.8 kmh 29.08 in984.8 mb 0.02 in0.5 mm 0.00 in0.0 mm 0.19 in4.8 mm
03:20 PM 40.3°F4.6°C 35.2°F1.8°C 82% 5.8 mph WNW9.3 kmh WNW 8.3 mph13.4 kmh 29.07 in984.4 mb 0.04 in1.0 mm 0.12 in3.0 mm 0.20 in5.1 mm
03:30 PM 39.9°F4.4°C 34.9°F1.6°C 82% 7.1 mph NW11.4 kmh NW 10.7 mph17.2 kmh 29.06 in984.1 mb 0.02 in0.5 mm 0.00 in0.0 mm 0.20 in5.1 mm
03:40 PM 39.9°F4.4°C 34.9°F1.6°C 82% 6.8 mph NW10.9 kmh NW 9.2 mph14.8 kmh 29.06 in984.1 mb 0.04 in1.0 mm 0.12 in3.0 mm 0.21 in5.3 mm
03:50 PM 39.9°F4.4°C 34.9°F1.6°C 82% 9.2 mph W14.8 kmh W 9.2 mph14.8 kmh 29.06 in984.1 mb 0.02 in0.5 mm 0.00 in0.0 mm 0.21 in5.3 mm
04:00 PM 39.9°F4.4°C 34.9°F1.6°C 82% 9.2 mph W14.8 kmh W 9.2 mph14.8 kmh 29.06 in984.1 mb 0.02 in0.5 mm 0.00 in0.0 mm 0.21 in5.3 mm
04:10 PM 39.9°F4.4°C 34.9°F1.6°C 82% 9.2 mph W14.8 kmh W 9.2 mph14.8 kmh 29.06 in984.1 mb 0.02 in0.5 mm 0.00 in0.0 mm 0.21 in5.3 mm
04:20 PM 39.9°F4.4°C 34.9°F1.6°C 82% 9.2 mph W14.8 kmh W 9.2 mph14.8 kmh 29.06 in984.1 mb 0.01 in0.3 mm 0.00 in0.0 mm 0.21 in5.3 mm
04:30 PM 39.9°F4.4°C 34.9°F1.6°C 82% 9.2 mph W14.8 kmh W 9.2 mph14.8 kmh 29.06 in984.1 mb 0.01 in0.3 mm 0.00 in0.0 mm 0.21 in5.3 mm
04:40 PM 39.6°F4.2°C 34.5°F1.4°C 82% 6.9 mph NW11.1 kmh NW 9.8 mph15.8 kmh 29.06 in984.1 mb 0.00 in0.0 mm 0.00 in0.0 mm 0.01 in0.3 mm
04:50 PM 39.7°F4.3°C 34.7°F1.5°C 82% 8.4 mph NW13.5 kmh NW 11.4 mph18.3 kmh 29.06 in984.1 mb 0.00 in0.0 mm 0.00 in0.0 mm 0.01 in0.3 mm
05:00 PM 39.9°F4.4°C 34.9°F1.6°C 82% 7.4 mph WNW11.9 kmh WNW 9.8 mph15.8 kmh 29.06 in984.1 mb 0.00 in0.0 mm 0.00 in0.0 mm 0.01 in0.3 mm
05:10 PM 39.7°F4.3°C 34.7°F1.5°C 82% 6.6 mph NW10.6 kmh NW 9.8 mph15.8 kmh 29.06 in984.1 mb 0.00 in0.0 mm 0.00 in0.0 mm 0.02 in0.5 mm
05:20 PM 39.7°F4.3°C 34.7°F1.5°C 82% 8.1 mph NW13.0 kmh NW 10.7 mph17.2 kmh 29.07 in984.4 mb 0.00 in0.0 mm 0.00 in0.0 mm 0.02 in0.5 mm
05:30 PM 39.7°F4.3°C 34.7°F1.5°C 82% 5.6 mph NNW9.0 kmh NNW 9.8 mph15.8 kmh 29.06 in984.1 mb 0.00 in0.0 mm 0.00 in0.0 mm 0.02 in0.5 mm
05:40 PM 39.7°F4.3°C 34.7°F1.5°C 82% 7.8 mph WNW12.6 kmh WNW 9.8 mph15.8 kmh 29.07 in984.4 mb 0.01 in0.3 mm 0.06 in1.5 mm 0.02 in0.5 mm
05:50 PM 39.7°F4.3°C 34.7°F1.5°C 82% 7.8 mph NW12.6 kmh NW 12.1 mph19.5 kmh 29.07 in984.4 mb 0.01 in0.3 mm 0.00 in0.0 mm 0.02 in0.5 mm
06:00 PM 39.9°F4.4°C 34.9°F1.6°C 82% 7.1 mph NW11.4 kmh NW 9.2 mph14.8 kmh 29.07 in984.4 mb 0.01 in0.3 mm 0.00 in0.0 mm 0.02 in0.5 mm
06:10 PM 39.9°F4.4°C 34.9°F1.6°C 82% 6.7 mph NW10.8 kmh NW 9.8 mph15.8 kmh 29.06 in984.1 mb 0.00 in0.0 mm 0.00 in0.0 mm 0.02 in0.5 mm
06:20 PM 40.1°F4.5°C 35.1°F1.7°C 82% 7.8 mph NW12.6 kmh NW 9.8 mph15.8 kmh 29.07 in984.4 mb 0.00 in0.0 mm 0.00 in0.0 mm 0.02 in0.5 mm
06:30 PM 40.3°F4.6°C 35.2°F1.8°C 82% 7.5 mph NW12.1 kmh NW 12.1 mph19.5 kmh 29.07 in984.4 mb 0.00 in0.0 mm 0.00 in0.0 mm 0.02 in0.5 mm
06:40 PM 40.3°F4.6°C 35.2°F1.8°C 82% 7.1 mph NW11.4 kmh NW 9.8 mph15.8 kmh 29.07 in984.4 mb 0.00 in0.0 mm 0.00 in0.0 mm 0.02 in0.5 mm
06:50 PM 40.5°F4.7°C 35.4°F1.9°C 82% 6.3 mph NW10.1 kmh NW 9.2 mph14.8 kmh 29.07 in984.4 mb 0.00 in0.0 mm 0.00 in0.0 mm 0.02 in0.5 mm
07:00 PM 40.5°F4.7°C 35.4°F1.9°C 82% 8.1 mph NW13.0 kmh NW 9.8 mph15.8 kmh 29.08 in984.8 mb 0.00 in0.0 mm 0.00 in0.0 mm 0.02 in0.5 mm
07:10 PM 40.5°F4.7°C 35.4°F1.9°C 82% 9.2 mph NW14.8 kmh NW 9.2 mph14.8 kmh 29.08 in984.8 mb 0.00 in0.0 mm 0.00 in0.0 mm 0.02 in0.5 mm
07:20 PM 40.5°F4.7°C 35.4°F1.9°C 82% 9.2 mph NW14.8 kmh NW 9.2 mph14.8 kmh 29.09 in985.1 mb 0.00 in0.0 mm 0.00 in0.0 mm 0.02 in0.5 mm
07:30 PM 40.5°F4.7°C 35.4°F1.9°C 82% 9.2 mph NW14.8 kmh NW 9.2 mph14.8 kmh 29.08 in984.8 mb 0.00 in0.0 mm 0.00 in0.0 mm 0.02 in0.5 mm
07:40 PM 40.5°F4.7°C 35.4°F1.9°C 82% 9.2 mph NW14.8 kmh NW 9.2 mph14.8 kmh 29.09 in985.1 mb 0.00 in0.0 mm 0.00 in0.0 mm 0.02 in0.5 mm
07:50 PM 40.5°F4.7°C 35.4°F1.9°C 82% 9.2 mph NW14.8 kmh NW 9.2 mph14.8 kmh 29.09 in985.1 mb 0.00 in0.0 mm 0.00 in0.0 mm 0.02 in0.5 mm
08:00 PM 40.5°F4.7°C 35.4°F1.9°C 82% 9.2 mph NW14.8 kmh NW 9.2 mph14.8 kmh 29.09 in985.1 mb 0.00 in0.0 mm 0.00 in0.0 mm 0.02 in0.5 mm
08:20 PM 39.7°F4.3°C 35.0°F1.7°C 83% 5.7 mph NW9.2 kmh NW 8.3 mph13.4 kmh 29.10 in985.4 mb 0.00 in0.0 mm 0.00 in0.0 mm 0.19 in4.8 mm
08:30 PM 39.7°F4.3°C 35.0°F1.7°C 83% 5.4 mph NNW8.7 kmh NNW 9.2 mph14.8 kmh 29.10 in985.4 mb 0.00 in0.0 mm 0.00 in0.0 mm 0.19 in4.8 mm
08:40 PM 39.6°F4.2°C 34.8°F1.6°C 83% 6.4 mph NW10.3 kmh NW 9.2 mph14.8 kmh 29.10 in985.4 mb 0.00 in0.0 mm 0.00 in0.0 mm 0.19 in4.8 mm
08:50 PM 39.6°F4.2°C 34.8°F1.6°C 83% 5.0 mph NW8.0 kmh NW 6.9 mph11.1 kmh 29.10 in985.4 mb 0.00 in0.0 mm 0.00 in0.0 mm 0.19 in4.8 mm
09:00 PM 39.6°F4.2°C 34.8°F1.6°C 83% 4.6 mph NW7.4 kmh NW 6.0 mph9.7 kmh 29.09 in985.1 mb 0.00 in0.0 mm 0.00 in0.0 mm 0.19 in4.8 mm
09:10 PM 39.6°F4.2°C 34.8°F1.6°C 83% 4.6 mph NW7.4 kmh NW 6.0 mph9.7 kmh 29.10 in985.4 mb 0.00 in0.0 mm 0.00 in0.0 mm 0.19 in4.8 mm
09:20 PM 39.6°F4.2°C 34.8°F1.6°C 83% 4.6 mph NW7.4 kmh NW 6.0 mph9.7 kmh 29.09 in985.1 mb 0.00 in0.0 mm 0.00 in0.0 mm 0.19 in4.8 mm
09:30 PM 39.6°F4.2°C 34.8°F1.6°C 83% 4.6 mph NW7.4 kmh NW 6.0 mph9.7 kmh 29.11 in985.8 mb 0.00 in0.0 mm 0.00 in0.0 mm 0.19 in4.8 mm
09:40 PM 39.6°F4.2°C 34.8°F1.6°C 83% 4.6 mph NW7.4 kmh NW 6.0 mph9.7 kmh 29.10 in985.4 mb 0.00 in0.0 mm 0.00 in0.0 mm 0.19 in4.8 mm
09:50 PM 39.0°F3.9°C 34.3°F1.3°C 83% 3.1 mph NW5.0 kmh NW 3.1 mph5.0 kmh 29.11 in985.8 mb 0.01 in0.3 mm 0.06 in1.5 mm 0.01 in0.3 mm
10:00 PM 39.0°F3.9°C 34.3°F1.3°C 83% 3.1 mph NW5.0 kmh NW 3.1 mph5.0 kmh 29.10 in985.4 mb 0.01 in0.3 mm 0.00 in0.0 mm 0.01 in0.3 mm
10:10 PM 39.0°F3.9°C 34.3°F1.3°C 83% 1.3 mph W2.1 kmh W 2.2 mph3.5 kmh 29.10 in985.4 mb 0.01 in0.3 mm 0.00 in0.0 mm 0.01 in0.3 mm
10:20 PM 39.0°F3.9°C 34.3°F1.3°C 83% Calm Calm -- 29.10 in985.4 mb 0.01 in0.3 mm 0.00 in0.0 mm 0.01 in0.3 mm
10:30 PM 39.0°F3.9°C 34.3°F1.3°C 83% Calm Calm -- 29.10 in985.4 mb 0.01 in0.3 mm 0.00 in0.0 mm 0.01 in0.3 mm
10:40 PM 39.0°F3.9°C 34.3°F1.3°C 83% Calm Calm -- 29.10 in985.4 mb 0.01 in0.3 mm 0.00 in0.0 mm 0.01 in0.3 mm
10:50 PM 39.2°F4.0°C 34.5°F1.4°C 83% Calm Calm -- 29.10 in985.4 mb 0.00 in0.0 mm 0.00 in0.0 mm 0.01 in0.3 mm
11:00 PM 39.2°F4.0°C 34.5°F1.4°C 83% 0.6 mph NW1.0 kmh NW 4.5 mph7.2 kmh 29.10 in985.4 mb 0.00 in0.0 mm 0.00 in0.0 mm 0.01 in0.3 mm
11:10 PM 39.4°F4.1°C 34.7°F1.5°C 83% 3.2 mph NW5.1 kmh NW 7.6 mph12.2 kmh 29.09 in985.1 mb 0.00 in0.0 mm 0.00 in0.0 mm 0.01 in0.3 mm
11:20 PM 39.2°F4.0°C 34.5°F1.4°C 83% 5.7 mph NW9.2 kmh NW 8.3 mph13.4 kmh 29.10 in985.4 mb 0.01 in0.3 mm 0.06 in1.5 mm 0.02 in0.5 mm
11:30 PM 39.2°F4.0°C 34.5°F1.4°C 83% 4.5 mph N7.2 kmh N 6.0 mph9.7 kmh 29.10 in985.4 mb 0.01 in0.3 mm 0.00 in0.0 mm 0.02 in0.5 mm
11:40 PM 39.2°F4.0°C 34.5°F1.4°C 83% 3.8 mph NNW6.1 kmh NNW 6.0 mph9.7 kmh 29.09 in985.1 mb 0.01 in0.3 mm 0.00 in0.0 mm 0.02 in0.5 mm
11:50 PM 39.2°F4.0°C 34.5°F1.4°C 83% 3.9 mph N6.3 kmh N 6.0 mph9.7 kmh 29.09 in985.1 mb 0.01 in0.3 mm 0.00 in0.0 mm 0.02 in0.5 mm